Hyundai No.107 — A8CT4 — position and weather

sailwx.info

Track history (hours):
 
Tides and Currents Weather Stations Pressure Air Temp Water Temp Dewpoint Dewpoint Depression Visibility Wind Speed Wind Dir Waves Ship Positions

Hyundai No.107

Last reported at 2016-Jul-22 14:13 UTC. Time now 2016-Jul-30 07:19 UTC.
Position N 46°20' W 125°29'.

Length 184 m; draft 7.5 m.

Type: Cargo ship. MMSI: 636011980.

Date/timePositionNaut miles runAvg speedWind from/ knotsBaromVisibWave heightAir tempDewpointWater temp
2016-Jul-22 14:13N 46°20' W 125°29'1014.9
2016-Jul-22 13:33N 46°19' W 125°15'1515.0
2016-Jul-22 12:33N 46°17' W 124°53'1515.2
2016-Jul-22 11:33N 46°13' W 124°32'1514.7
2016-Jul-22 10:34N 46°11' W 124°11'10 9.8
2016-Jul-22 09:33N 46°13' W 123°57'8 7.5
2016-Jul-22 08:33N 46°13' W 123°46'1111.0
2016-Jul-22 07:33N 46°16' W 123°31'19 9.8
2016-Jul-22 05:33N 46°10' W 123°04'1212.0
2016-Jul-22 04:33N 46°01' W 122°52'1212.1
2016-Jul-22 03:34N 45°49' W 122°48'1110.5
2016-Jul-22 02:34N 45°39' W 122°45'0 0.2
2016-Jul-22 01:32N 45°39' W 122°45'0 0.0
2016-Jul-22 00:31N 45°39' W 122°45'0 0.0
2016-Jul-21 23:25N 45°39' W 122°45'0 0.0
2016-Jul-21 22:31N 45°39' W 122°45'0 0.0
2016-Jul-21 21:28N 45°39' W 122°45'0 0.0
2016-Jul-21 20:34N 45°39' W 122°45'0 0.0
2016-Jul-21 19:27N 45°39' W 122°45'0 0.0
2016-Jul-21 18:24N 45°39' W 122°45'0 0.0
2016-Jul-21 17:33N 45°39' W 122°45'0 0.0
2016-Jul-21 16:33N 45°39' W 122°45'0 0.0
2016-Jul-21 15:21N 45°39' W 122°45'0 0.0
2016-Jul-21 14:32N 45°39' W 122°45'0 0.0
2016-Jul-21 13:32N 45°39' W 122°45'0 0.0
2016-Jul-21 12:29N 45°39' W 122°45'0 0.0
2016-Jul-21 11:26N 45°39' W 122°45'0 0.0
2016-Jul-21 10:29N 45°39' W 122°45'0 0.0
2016-Jul-21 09:31N 45°39' W 122°45'0 0.0
2016-Jul-21 08:31N 45°39' W 122°45'0 0.0
2016-Jul-21 07:31N 45°39' W 122°45'0 0.0
2016-Jul-21 06:27N 45°39' W 122°45'0 0.0
2016-Jul-21 05:33N 45°39' W 122°45'0 0.0
2016-Jul-21 04:30N 45°39' W 122°45'0 0.0
2016-Jul-21 03:30N 45°39' W 122°45'0 0.0
2016-Jul-21 02:30N 45°39' W 122°45'1 0.9
2016-Jul-21 01:34N 45°40' W 122°46'1211.7
2016-Jul-21 00:34N 45°51' W 122°47'1111.2
2016-Jul-20 23:34N 46°02' W 122°53'1110.9
2016-Jul-20 22:34N 46°09' W 123°04'1111.0
2016-Jul-20 21:34N 46°09' W 123°19'1010.0
2016-Jul-20 20:34N 46°16' W 123°29'1313.4
2016-Jul-20 19:34N 46°13' W 123°47'1111.1
2016-Jul-20 18:34N 46°15' W 124°03'1211.7
2016-Jul-20 17:33N 46°12' W 124°19'1413.6
2016-Jul-20 16:34N 46°13' W 124°38'5 5.2
2016-Jul-20 15:33N 46°13' W 124°46'1 1.4
2016-Jul-20 14:34N 46°12' W 124°46'1010.3
2016-Jul-20 13:33N 46°11' W 125°01'1616.0
2016-Jul-20 12:34N 46°12' W 125°24'  
2016-Jul-15 14:26N 32°36' W 125°19'1613.8
2016-Jul-15 13:16N 32°26' W 125°04'5414.0
2016-Jul-15 09:25N 31°51' W 124°15'1214.2
2016-Jul-15 08:33N 31°43' W 124°04'1414.0
2016-Jul-15 07:33N 31°34' W 123°51'1414.1
2016-Jul-15 06:33N 31°25' W 123°39'1414.3
2016-Jul-15 05:33N 31°16' W 123°26'1414.1
2016-Jul-15 04:34N 31°07' W 123°13'1414.3
2016-Jul-15 03:33N 30°57' W 123°01'1414.1
2016-Jul-15 02:33N 30°48' W 122°48'1414.2
2016-Jul-15 01:34N 30°40' W 122°35'2114.1
2016-Jul-15 00:05N 30°27' W 122°16'1114.4
2016-Jul-14 23:17N 30°20' W 122°05'1014.3
2016-Jul-14 22:33N 30°13' W 121°56'1414.4
2016-Jul-14 21:33N 30°04' W 121°44'1514.5
2016-Jul-14 20:33N 29°54' W 121°31'1514.6
2016-Jul-14 19:32N 29°45' W 121°18'1514.8
2016-Jul-14 18:33N 29°35' W 121°05'1514.8
2016-Jul-14 17:33N 29°26' W 120°52'1514.7
2016-Jul-14 16:33N 29°16' W 120°39'1514.9
2016-Jul-14 15:33N 29°07' W 120°26'8115.0
2016-Jul-14 10:12N 28°14' W 119°16'1714.8
2016-Jul-14 09:04N 28°04' W 119°02'815.0
2016-Jul-14 08:33N 27°59' W 118°55'7414.4
2016-Jul-14 03:25N 27°11' W 117°52'  
Track history (hours):
 
Tides and Currents Weather Stations Pressure Air Temp Water Temp Dewpoint Dewpoint Depression Visibility Wind Speed Wind Dir Waves Ship Positions

Hyundai No.107

Last reported at 2016-Jul-22 14:13 UTC. Time now 2016-Jul-30 07:19 UTC.
Position N 46°20' W 125°29'.

Length 184 m; draft 7.5 m.

Type: Cargo ship. MMSI: 636011980.

Date/timePositionNaut miles runAvg speedWind from/ knotsBaromVisibWave heightAir tempDewpointWater temp
2016-Jul-22 14:13N 46°20' W 125°29'1014.9
2016-Jul-22 13:33N 46°19' W 125°15'1515.0
2016-Jul-22 12:33N 46°17' W 124°53'1515.2
2016-Jul-22 11:33N 46°13' W 124°32'1514.7
2016-Jul-22 10:34N 46°11' W 124°11'10 9.8
2016-Jul-22 09:33N 46°13' W 123°57'8 7.5
2016-Jul-22 08:33N 46°13' W 123°46'1111.0
2016-Jul-22 07:33N 46°16' W 123°31'19 9.8
2016-Jul-22 05:33N 46°10' W 123°04'1212.0
2016-Jul-22 04:33N 46°01' W 122°52'1212.1
2016-Jul-22 03:34N 45°49' W 122°48'1110.5
2016-Jul-22 02:34N 45°39' W 122°45'0 0.2
2016-Jul-22 01:32N 45°39' W 122°45'0 0.0
2016-Jul-22 00:31N 45°39' W 122°45'0 0.0
2016-Jul-21 23:25N 45°39' W 122°45'0 0.0
2016-Jul-21 22:31N 45°39' W 122°45'0 0.0
2016-Jul-21 21:28N 45°39' W 122°45'0 0.0
2016-Jul-21 20:34N 45°39' W 122°45'0 0.0
2016-Jul-21 19:27N 45°39' W 122°45'0 0.0
2016-Jul-21 18:24N 45°39' W 122°45'0 0.0
2016-Jul-21 17:33N 45°39' W 122°45'0 0.0
2016-Jul-21 16:33N 45°39' W 122°45'0 0.0
2016-Jul-21 15:21N 45°39' W 122°45'0 0.0
2016-Jul-21 14:32N 45°39' W 122°45'0 0.0
2016-Jul-21 13:32N 45°39' W 122°45'0 0.0
2016-Jul-21 12:29N 45°39' W 122°45'0 0.0
2016-Jul-21 11:26N 45°39' W 122°45'0 0.0
2016-Jul-21 10:29N 45°39' W 122°45'0 0.0
2016-Jul-21 09:31N 45°39' W 122°45'0 0.0
2016-Jul-21 08:31N 45°39' W 122°45'0 0.0
2016-Jul-21 07:31N 45°39' W 122°45'0 0.0
2016-Jul-21 06:27N 45°39' W 122°45'0 0.0
2016-Jul-21 05:33N 45°39' W 122°45'0 0.0
2016-Jul-21 04:30N 45°39' W 122°45'0 0.0
2016-Jul-21 03:30N 45°39' W 122°45'0 0.0
2016-Jul-21 02:30N 45°39' W 122°45'1 0.9
2016-Jul-21 01:34N 45°40' W 122°46'1211.7
2016-Jul-21 00:34N 45°51' W 122°47'1111.2
2016-Jul-20 23:34N 46°02' W 122°53'1110.9
2016-Jul-20 22:34N 46°09' W 123°04'1111.0
2016-Jul-20 21:34N 46°09' W 123°19'1010.0
2016-Jul-20 20:34N 46°16' W 123°29'1313.4
2016-Jul-20 19:34N 46°13' W 123°47'1111.1
2016-Jul-20 18:34N 46°15' W 124°03'1211.7
2016-Jul-20 17:33N 46°12' W 124°19'1413.6
2016-Jul-20 16:34N 46°13' W 124°38'5 5.2
2016-Jul-20 15:33N 46°13' W 124°46'1 1.4
2016-Jul-20 14:34N 46°12' W 124°46'1010.3
2016-Jul-20 13:33N 46°11' W 125°01'1616.0
2016-Jul-20 12:34N 46°12' W 125°24'  
2016-Jul-15 14:26N 32°36' W 125°19'1613.8
2016-Jul-15 13:16N 32°26' W 125°04'5414.0
2016-Jul-15 09:25N 31°51' W 124°15'1214.2
2016-Jul-15 08:33N 31°43' W 124°04'1414.0
2016-Jul-15 07:33N 31°34' W 123°51'1414.1
2016-Jul-15 06:33N 31°25' W 123°39'1414.3
2016-Jul-15 05:33N 31°16' W 123°26'1414.1
2016-Jul-15 04:34N 31°07' W 123°13'1414.3
2016-Jul-15 03:33N 30°57' W 123°01'1414.1
2016-Jul-15 02:33N 30°48' W 122°48'1414.2
2016-Jul-15 01:34N 30°40' W 122°35'2114.1
2016-Jul-15 00:05N 30°27' W 122°16'1114.4
2016-Jul-14 23:17N 30°20' W 122°05'1014.3
2016-Jul-14 22:33N 30°13' W 121°56'1414.4
2016-Jul-14 21:33N 30°04' W 121°44'1514.5
2016-Jul-14 20:33N 29°54' W 121°31'1514.6
2016-Jul-14 19:32N 29°45' W 121°18'1514.8
2016-Jul-14 18:33N 29°35' W 121°05'1514.8
2016-Jul-14 17:33N 29°26' W 120°52'1514.7
2016-Jul-14 16:33N 29°16' W 120°39'1514.9
2016-Jul-14 15:33N 29°07' W 120°26'8115.0
2016-Jul-14 10:12N 28°14' W 119°16'1714.8
2016-Jul-14 09:04N 28°04' W 119°02'815.0
2016-Jul-14 08:33N 27°59' W 118°55'7414.4
2016-Jul-14 03:25N 27°11' W 117°52'  

Dump ship's entire track history